sensor_id;sensor_type;location;lat;lon;timestamp;P1;durP1;ratioP1;P2;durP2;ratioP2
72569;SDS011;60594;50.204;8.844;2023-12-20T00:01:01;11.80;;;5.38;;
72569;SDS011;60594;50.204;8.844;2023-12-20T00:03:40;11.07;;;4.68;;
72569;SDS011;60594;50.204;8.844;2023-12-20T00:06:06;9.63;;;4.75;;
72569;SDS011;60594;50.204;8.844;2023-12-20T00:08:33;12.75;;;5.30;;
72569;SDS011;60594;50.204;8.844;2023-12-20T00:11:00;11.55;;;5.22;;
72569;SDS011;60594;50.204;8.844;2023-12-20T00:13:26;13.52;;;5.90;;
72569;SDS011;60594;50.204;8.844;2023-12-20T00:15:52;9.30;;;3.92;;
72569;SDS011;60594;50.204;8.844;2023-12-20T00:18:19;13.73;;;5.57;;
72569;SDS011;60594;50.204;8.844;2023-12-20T00:20:46;11.50;;;4.85;;
72569;SDS011;60594;50.204;8.844;2023-12-20T00:23:12;9.02;;;4.13;;
72569;SDS011;60594;50.204;8.844;2023-12-20T00:25:38;10.88;;;4.50;;
72569;SDS011;60594;50.204;8.844;2023-12-20T00:28:05;9.77;;;4.97;;
72569;SDS011;60594;50.204;8.844;2023-12-20T00:30:32;10.68;;;5.22;;
72569;SDS011;60594;50.204;8.844;2023-12-20T00:32:58;9.35;;;4.40;;
72569;SDS011;60594;50.204;8.844;2023-12-20T00:35:25;11.70;;;4.93;;
72569;SDS011;60594;50.204;8.844;2023-12-20T00:37:51;12.70;;;4.80;;
72569;SDS011;60594;50.204;8.844;2023-12-20T00:40:18;9.00;;;4.28;;
72569;SDS011;60594;50.204;8.844;2023-12-20T00:42:44;10.20;;;4.28;;
72569;SDS011;60594;50.204;8.844;2023-12-20T00:45:12;9.05;;;4.10;;
72569;SDS011;60594;50.204;8.844;2023-12-20T00:47:40;9.80;;;4.38;;
72569;SDS011;60594;50.204;8.844;2023-12-20T00:50:07;10.13;;;4.40;;
72569;SDS011;60594;50.204;8.844;2023-12-20T00:52:34;10.13;;;4.05;;
72569;SDS011;60594;50.204;8.844;2023-12-20T00:55:00;8.35;;;4.50;;
72569;SDS011;60594;50.204;8.844;2023-12-20T00:57:27;8.00;;;4.20;;
72569;SDS011;60594;50.204;8.844;2023-12-20T00:59:53;8.07;;;4.07;;
72569;SDS011;60594;50.204;8.844;2023-12-20T01:02:20;8.57;;;4.50;;
72569;SDS011;60594;50.204;8.844;2023-12-20T01:04:46;9.50;;;3.85;;
72569;SDS011;60594;50.204;8.844;2023-12-20T01:07:13;10.27;;;4.22;;
72569;SDS011;60594;50.204;8.844;2023-12-20T01:09:39;8.95;;;4.50;;
72569;SDS011;60594;50.204;8.844;2023-12-20T01:12:05;8.90;;;4.20;;
72569;SDS011;60594;50.204;8.844;2023-12-20T01:14:32;6.78;;;3.15;;
72569;SDS011;60594;50.204;8.844;2023-12-20T01:16:59;8.77;;;3.78;;
72569;SDS011;60594;50.204;8.844;2023-12-20T01:19:25;7.47;;;4.18;;
72569;SDS011;60594;50.204;8.844;2023-12-20T01:21:53;8.60;;;4.35;;
72569;SDS011;60594;50.204;8.844;2023-12-20T01:24:19;8.02;;;4.00;;
72569;SDS011;60594;50.204;8.844;2023-12-20T01:26:46;7.25;;;4.05;;
72569;SDS011;60594;50.204;8.844;2023-12-20T01:29:12;10.05;;;4.57;;
72569;SDS011;60594;50.204;8.844;2023-12-20T01:31:40;8.57;;;4.22;;
72569;SDS011;60594;50.204;8.844;2023-12-20T01:34:06;9.93;;;3.83;;
72569;SDS011;60594;50.204;8.844;2023-12-20T01:36:33;8.13;;;3.97;;
72569;SDS011;60594;50.204;8.844;2023-12-20T01:38:59;6.70;;;3.33;;
72569;SDS011;60594;50.204;8.844;2023-12-20T01:41:26;7.55;;;3.80;;
72569;SDS011;60594;50.204;8.844;2023-12-20T01:43:52;9.32;;;3.95;;
72569;SDS011;60594;50.204;8.844;2023-12-20T01:46:19;7.63;;;3.70;;
72569;SDS011;60594;50.204;8.844;2023-12-20T01:48:47;8.88;;;4.40;;
72569;SDS011;60594;50.204;8.844;2023-12-20T01:51:14;7.65;;;3.50;;
72569;SDS011;60594;50.204;8.844;2023-12-20T01:53:41;10.63;;;4.60;;
72569;SDS011;60594;50.204;8.844;2023-12-20T01:56:09;7.18;;;3.67;;
72569;SDS011;60594;50.204;8.844;2023-12-20T01:58:37;8.63;;;4.20;;
72569;SDS011;60594;50.204;8.844;2023-12-20T02:01:08;7.82;;;3.83;;
72569;SDS011;60594;50.204;8.844;2023-12-20T02:03:34;7.72;;;3.58;;
72569;SDS011;60594;50.204;8.844;2023-12-20T02:06:03;8.07;;;3.85;;
72569;SDS011;60594;50.204;8.844;2023-12-20T02:08:31;8.18;;;3.75;;
72569;SDS011;60594;50.204;8.844;2023-12-20T02:10:57;6.78;;;3.33;;
72569;SDS011;60594;50.204;8.844;2023-12-20T02:13:24;9.48;;;4.05;;
72569;SDS011;60594;50.204;8.844;2023-12-20T02:15:53;6.88;;;3.92;;
72569;SDS011;60594;50.204;8.844;2023-12-20T02:18:20;9.40;;;4.05;;
72569;SDS011;60594;50.204;8.844;2023-12-20T02:20:47;7.70;;;4.05;;
72569;SDS011;60594;50.204;8.844;2023-12-20T02:23:14;7.80;;;3.70;;
72569;SDS011;60594;50.204;8.844;2023-12-20T02:25:41;8.80;;;4.10;;
72569;SDS011;60594;50.204;8.844;2023-12-20T02:28:07;6.90;;;3.53;;
72569;SDS011;60594;50.204;8.844;2023-12-20T02:30:34;8.93;;;4.13;;
72569;SDS011;60594;50.204;8.844;2023-12-20T02:33:00;7.78;;;3.97;;
72569;SDS011;60594;50.204;8.844;2023-12-20T02:35:27;8.00;;;3.90;;
72569;SDS011;60594;50.204;8.844;2023-12-20T02:37:54;8.75;;;4.03;;
72569;SDS011;60594;50.204;8.844;2023-12-20T02:40:20;7.55;;;3.70;;
72569;SDS011;60594;50.204;8.844;2023-12-20T02:42:46;8.68;;;3.78;;
72569;SDS011;60594;50.204;8.844;2023-12-20T02:45:13;8.30;;;3.80;;
72569;SDS011;60594;50.204;8.844;2023-12-20T02:47:40;9.18;;;4.32;;
72569;SDS011;60594;50.204;8.844;2023-12-20T02:50:07;9.27;;;4.07;;
72569;SDS011;60594;50.204;8.844;2023-12-20T02:52:33;9.38;;;4.55;;
72569;SDS011;60594;50.204;8.844;2023-12-20T02:55:00;7.53;;;3.78;;
72569;SDS011;60594;50.204;8.844;2023-12-20T02:57:26;7.93;;;3.92;;
72569;SDS011;60594;50.204;8.844;2023-12-20T02:59:53;8.40;;;3.90;;
72569;SDS011;60594;50.204;8.844;2023-12-20T03:02:19;8.05;;;3.97;;
72569;SDS011;60594;50.204;8.844;2023-12-20T03:04:46;7.20;;;3.95;;
72569;SDS011;60594;50.204;8.844;2023-12-20T03:07:12;10.10;;;4.63;;
72569;SDS011;60594;50.204;8.844;2023-12-20T03:09:38;6.47;;;3.55;;
72569;SDS011;60594;50.204;8.844;2023-12-20T03:12:05;6.57;;;3.30;;
72569;SDS011;60594;50.204;8.844;2023-12-20T03:14:31;7.53;;;3.63;;
72569;SDS011;60594;50.204;8.844;2023-12-20T03:16:58;6.28;;;2.85;;
72569;SDS011;60594;50.204;8.844;2023-12-20T03:19:24;7.28;;;3.47;;
72569;SDS011;60594;50.204;8.844;2023-12-20T03:21:51;6.47;;;2.50;;
72569;SDS011;60594;50.204;8.844;2023-12-20T03:24:19;5.75;;;3.00;;
72569;SDS011;60594;50.204;8.844;2023-12-20T03:26:45;6.78;;;2.83;;
72569;SDS011;60594;50.204;8.844;2023-12-20T03:29:12;6.32;;;3.80;;
72569;SDS011;60594;50.204;8.844;2023-12-20T03:31:38;7.43;;;3.65;;
72569;SDS011;60594;50.204;8.844;2023-12-20T03:34:05;9.38;;;3.67;;
72569;SDS011;60594;50.204;8.844;2023-12-20T03:36:31;7.03;;;3.08;;
72569;SDS011;60594;50.204;8.844;2023-12-20T03:38:58;6.90;;;3.50;;
72569;SDS011;60594;50.204;8.844;2023-12-20T03:41:24;6.60;;;3.22;;
72569;SDS011;60594;50.204;8.844;2023-12-20T03:43:51;8.30;;;4.03;;
72569;SDS011;60594;50.204;8.844;2023-12-20T03:46:17;6.43;;;3.53;;
72569;SDS011;60594;50.204;8.844;2023-12-20T03:48:44;7.00;;;2.97;;
72569;SDS011;60594;50.204;8.844;2023-12-20T03:51:10;7.53;;;4.13;;
72569;SDS011;60594;50.204;8.844;2023-12-20T03:53:36;7.00;;;3.63;;
72569;SDS011;60594;50.204;8.844;2023-12-20T03:56:03;7.65;;;3.47;;
72569;SDS011;60594;50.204;8.844;2023-12-20T03:58:30;7.30;;;3.63;;
72569;SDS011;60594;50.204;8.844;2023-12-20T04:00:56;7.35;;;3.90;;
72569;SDS011;60594;50.204;8.844;2023-12-20T04:03:22;8.70;;;3.72;;
72569;SDS011;60594;50.204;8.844;2023-12-20T04:05:49;6.35;;;2.92;;
72569;SDS011;60594;50.204;8.844;2023-12-20T04:08:15;7.45;;;3.60;;
72569;SDS011;60594;50.204;8.844;2023-12-20T04:10:42;6.72;;;3.63;;
72569;SDS011;60594;50.204;8.844;2023-12-20T04:13:08;7.00;;;3.15;;
72569;SDS011;60594;50.204;8.844;2023-12-20T04:15:35;10.18;;;4.10;;
72569;SDS011;60594;50.204;8.844;2023-12-20T04:18:01;8.48;;;3.35;;
72569;SDS011;60594;50.204;8.844;2023-12-20T04:20:28;7.75;;;4.15;;
72569;SDS011;60594;50.204;8.844;2023-12-20T04:22:54;7.10;;;3.75;;
72569;SDS011;60594;50.204;8.844;2023-12-20T04:25:20;7.78;;;3.85;;
72569;SDS011;60594;50.204;8.844;2023-12-20T04:27:47;7.28;;;3.92;;
72569;SDS011;60594;50.204;8.844;2023-12-20T04:30:13;9.10;;;3.63;;
72569;SDS011;60594;50.204;8.844;2023-12-20T04:32:40;8.77;;;3.58;;
72569;SDS011;60594;50.204;8.844;2023-12-20T04:35:06;5.78;;;2.75;;
72569;SDS011;60594;50.204;8.844;2023-12-20T04:37:34;7.15;;;3.10;;
72569;SDS011;60594;50.204;8.844;2023-12-20T04:40:01;6.43;;;3.00;;
72569;SDS011;60594;50.204;8.844;2023-12-20T04:42:28;6.35;;;2.80;;
72569;SDS011;60594;50.204;8.844;2023-12-20T04:44:55;6.15;;;2.78;;
72569;SDS011;60594;50.204;8.844;2023-12-20T04:47:21;5.93;;;2.60;;
72569;SDS011;60594;50.204;8.844;2023-12-20T04:49:48;5.22;;;2.80;;
72569;SDS011;60594;50.204;8.844;2023-12-20T04:52:15;5.47;;;2.35;;
72569;SDS011;60594;50.204;8.844;2023-12-20T04:54:41;5.75;;;2.60;;
72569;SDS011;60594;50.204;8.844;2023-12-20T04:57:07;6.25;;;2.83;;
72569;SDS011;60594;50.204;8.844;2023-12-20T04:59:34;6.85;;;3.08;;
72569;SDS011;60594;50.204;8.844;2023-12-20T05:02:00;5.55;;;3.00;;
72569;SDS011;60594;50.204;8.844;2023-12-20T05:04:27;7.50;;;3.42;;
72569;SDS011;60594;50.204;8.844;2023-12-20T05:06:53;6.32;;;2.85;;
72569;SDS011;60594;50.204;8.844;2023-12-20T05:09:20;6.78;;;3.20;;
72569;SDS011;60594;50.204;8.844;2023-12-20T05:11:46;7.57;;;3.55;;
72569;SDS011;60594;50.204;8.844;2023-12-20T05:14:12;7.68;;;3.25;;
72569;SDS011;60594;50.204;8.844;2023-12-20T05:16:39;6.07;;;3.00;;
72569;SDS011;60594;50.204;8.844;2023-12-20T05:19:05;6.60;;;2.35;;
72569;SDS011;60594;50.204;8.844;2023-12-20T05:21:32;6.30;;;3.00;;
72569;SDS011;60594;50.204;8.844;2023-12-20T05:23:59;7.22;;;3.72;;
72569;SDS011;60594;50.204;8.844;2023-12-20T05:26:27;7.55;;;3.33;;
72569;SDS011;60594;50.204;8.844;2023-12-20T05:28:53;7.68;;;3.30;;
72569;SDS011;60594;50.204;8.844;2023-12-20T05:31:19;5.88;;;3.42;;
72569;SDS011;60594;50.204;8.844;2023-12-20T05:33:46;7.22;;;3.22;;
72569;SDS011;60594;50.204;8.844;2023-12-20T05:36:12;5.57;;;3.00;;
72569;SDS011;60594;50.204;8.844;2023-12-20T05:38:41;6.18;;;3.15;;
72569;SDS011;60594;50.204;8.844;2023-12-20T05:41:07;6.90;;;2.83;;
72569;SDS011;60594;50.204;8.844;2023-12-20T05:43:34;6.18;;;3.00;;
72569;SDS011;60594;50.204;8.844;2023-12-20T05:46:00;4.95;;;2.45;;
72569;SDS011;60594;50.204;8.844;2023-12-20T05:48:27;6.40;;;3.85;;
72569;SDS011;60594;50.204;8.844;2023-12-20T05:50:53;5.65;;;3.00;;
72569;SDS011;60594;50.204;8.844;2023-12-20T05:53:20;6.75;;;2.80;;
72569;SDS011;60594;50.204;8.844;2023-12-20T05:55:46;7.18;;;3.03;;
72569;SDS011;60594;50.204;8.844;2023-12-20T05:58:13;6.47;;;3.13;;
72569;SDS011;60594;50.204;8.844;2023-12-20T06:00:39;5.45;;;2.72;;
72569;SDS011;60594;50.204;8.844;2023-12-20T06:03:05;6.20;;;2.38;;
72569;SDS011;60594;50.204;8.844;2023-12-20T06:05:32;4.90;;;2.10;;
72569;SDS011;60594;50.204;8.844;2023-12-20T06:07:58;5.60;;;2.72;;
72569;SDS011;60594;50.204;8.844;2023-12-20T06:10:29;4.45;;;1.92;;
72569;SDS011;60594;50.204;8.844;2023-12-20T06:12:55;6.55;;;2.25;;
72569;SDS011;60594;50.204;8.844;2023-12-20T06:15:22;5.75;;;2.15;;
72569;SDS011;60594;50.204;8.844;2023-12-20T06:17:49;5.55;;;1.95;;
72569;SDS011;60594;50.204;8.844;2023-12-20T06:20:16;4.50;;;2.13;;
72569;SDS011;60594;50.204;8.844;2023-12-20T06:22:42;6.70;;;2.03;;
72569;SDS011;60594;50.204;8.844;2023-12-20T06:25:09;4.50;;;1.98;;
72569;SDS011;60594;50.204;8.844;2023-12-20T06:27:35;3.58;;;1.70;;
72569;SDS011;60594;50.204;8.844;2023-12-20T06:30:01;5.20;;;1.52;;
72569;SDS011;60594;50.204;8.844;2023-12-20T06:32:28;4.00;;;1.95;;
72569;SDS011;60594;50.204;8.844;2023-12-20T06:34:55;5.13;;;1.50;;
72569;SDS011;60594;50.204;8.844;2023-12-20T06:37:22;5.50;;;1.58;;
72569;SDS011;60594;50.204;8.844;2023-12-20T06:39:48;5.57;;;1.55;;
72569;SDS011;60594;50.204;8.844;2023-12-20T06:42:15;4.95;;;1.75;;
72569;SDS011;60594;50.204;8.844;2023-12-20T06:44:41;6.50;;;1.50;;
72569;SDS011;60594;50.204;8.844;2023-12-20T06:47:08;5.75;;;1.38;;
72569;SDS011;60594;50.204;8.844;2023-12-20T06:49:34;5.00;;;1.70;;
72569;SDS011;60594;50.204;8.844;2023-12-20T06:52:01;7.20;;;1.95;;
72569;SDS011;60594;50.204;8.844;2023-12-20T06:54:27;8.93;;;1.55;;
72569;SDS011;60594;50.204;8.844;2023-12-20T06:56:54;6.82;;;1.85;;
72569;SDS011;60594;50.204;8.844;2023-12-20T06:59:20;4.55;;;1.67;;
72569;SDS011;60594;50.204;8.844;2023-12-20T07:01:50;5.22;;;1.77;;
72569;SDS011;60594;50.204;8.844;2023-12-20T07:04:16;5.88;;;2.20;;
72569;SDS011;60594;50.204;8.844;2023-12-20T07:06:46;5.20;;;1.77;;
72569;SDS011;60594;50.204;8.844;2023-12-20T07:09:13;4.55;;;1.90;;
72569;SDS011;60594;50.204;8.844;2023-12-20T07:11:40;5.53;;;2.28;;
72569;SDS011;60594;50.204;8.844;2023-12-20T07:14:07;6.28;;;1.92;;
72569;SDS011;60594;50.204;8.844;2023-12-20T07:16:33;5.90;;;1.80;;
72569;SDS011;60594;50.204;8.844;2023-12-20T07:19:01;6.80;;;2.03;;
72569;SDS011;60594;50.204;8.844;2023-12-20T07:21:27;6.90;;;2.55;;
72569;SDS011;60594;50.204;8.844;2023-12-20T07:23:54;5.38;;;2.45;;
72569;SDS011;60594;50.204;8.844;2023-12-20T07:26:20;8.52;;;2.47;;
72569;SDS011;60594;50.204;8.844;2023-12-20T07:28:47;6.90;;;2.53;;
72569;SDS011;60594;50.204;8.844;2023-12-20T07:31:14;7.35;;;2.40;;
72569;SDS011;60594;50.204;8.844;2023-12-20T07:33:42;10.18;;;2.97;;
72569;SDS011;60594;50.204;8.844;2023-12-20T07:36:08;5.55;;;1.92;;
72569;SDS011;60594;50.204;8.844;2023-12-20T07:38:35;4.72;;;2.00;;
72569;SDS011;60594;50.204;8.844;2023-12-20T07:41:01;5.40;;;2.15;;
72569;SDS011;60594;50.204;8.844;2023-12-20T07:43:28;5.15;;;2.08;;
72569;SDS011;60594;50.204;8.844;2023-12-20T07:45:54;5.88;;;2.63;;
72569;SDS011;60594;50.204;8.844;2023-12-20T07:48:21;8.02;;;2.67;;
72569;SDS011;60594;50.204;8.844;2023-12-20T07:50:47;7.30;;;2.85;;
72569;SDS011;60594;50.204;8.844;2023-12-20T07:53:13;5.13;;;1.90;;
72569;SDS011;60594;50.204;8.844;2023-12-20T07:55:40;7.65;;;2.53;;
72569;SDS011;60594;50.204;8.844;2023-12-20T07:58:06;4.90;;;2.17;;
72569;SDS011;60594;50.204;8.844;2023-12-20T08:00:33;4.35;;;1.77;;
72569;SDS011;60594;50.204;8.844;2023-12-20T08:02:59;5.53;;;2.08;;
72569;SDS011;60594;50.204;8.844;2023-12-20T08:05:29;5.65;;;2.25;;
72569;SDS011;60594;50.204;8.844;2023-12-20T08:07:55;6.05;;;2.00;;
72569;SDS011;60594;50.204;8.844;2023-12-20T08:10:22;5.38;;;2.00;;
72569;SDS011;60594;50.204;8.844;2023-12-20T08:12:49;6.55;;;2.45;;
72569;SDS011;60594;50.204;8.844;2023-12-20T08:15:15;5.50;;;2.75;;
72569;SDS011;60594;50.204;8.844;2023-12-20T08:17:42;6.45;;;2.13;;
72569;SDS011;60594;50.204;8.844;2023-12-20T08:20:08;4.57;;;1.98;;
72569;SDS011;60594;50.204;8.844;2023-12-20T08:22:35;6.22;;;2.65;;
72569;SDS011;60594;50.204;8.844;2023-12-20T08:25:01;5.22;;;2.38;;
72569;SDS011;60594;50.204;8.844;2023-12-20T08:27:28;5.80;;;2.30;;
72569;SDS011;60594;50.204;8.844;2023-12-20T08:29:54;6.22;;;2.38;;
72569;SDS011;60594;50.204;8.844;2023-12-20T08:32:21;5.65;;;2.25;;
72569;SDS011;60594;50.204;8.844;2023-12-20T08:34:48;4.05;;;1.80;;
72569;SDS011;60594;50.204;8.844;2023-12-20T08:37:14;5.88;;;2.17;;
72569;SDS011;60594;50.204;8.844;2023-12-20T08:39:41;9.13;;;2.40;;
72569;SDS011;60594;50.204;8.844;2023-12-20T08:42:07;5.90;;;1.52;;
72569;SDS011;60594;50.204;8.844;2023-12-20T08:44:34;6.68;;;1.70;;
72569;SDS011;60594;50.204;8.844;2023-12-20T08:47:00;6.25;;;2.03;;
72569;SDS011;60594;50.204;8.844;2023-12-20T08:49:27;4.60;;;2.03;;
72569;SDS011;60594;50.204;8.844;2023-12-20T08:51:54;5.45;;;1.88;;
72569;SDS011;60594;50.204;8.844;2023-12-20T08:54:20;5.65;;;2.45;;
72569;SDS011;60594;50.204;8.844;2023-12-20T08:56:47;8.55;;;2.17;;
72569;SDS011;60594;50.204;8.844;2023-12-20T08:59:13;5.47;;;1.70;;
72569;SDS011;60594;50.204;8.844;2023-12-20T09:01:40;4.88;;;2.10;;
72569;SDS011;60594;50.204;8.844;2023-12-20T09:04:07;5.30;;;1.80;;
72569;SDS011;60594;50.204;8.844;2023-12-20T09:06:33;8.48;;;2.28;;
72569;SDS011;60594;50.204;8.844;2023-12-20T09:09:00;6.63;;;2.00;;
72569;SDS011;60594;50.204;8.844;2023-12-20T09:11:27;6.72;;;2.03;;
72569;SDS011;60594;50.204;8.844;2023-12-20T09:13:53;4.47;;;1.88;;
72569;SDS011;60594;50.204;8.844;2023-12-20T09:16:19;5.53;;;1.80;;
72569;SDS011;60594;50.204;8.844;2023-12-20T09:18:46;6.30;;;2.00;;
72569;SDS011;60594;50.204;8.844;2023-12-20T09:21:12;3.78;;;1.67;;
72569;SDS011;60594;50.204;8.844;2023-12-20T09:23:39;9.20;;;1.73;;
72569;SDS011;60594;50.204;8.844;2023-12-20T09:26:06;9.20;;;2.88;;
72569;SDS011;60594;50.204;8.844;2023-12-20T09:28:32;6.60;;;2.28;;
72569;SDS011;60594;50.204;8.844;2023-12-20T09:31:03;8.10;;;2.13;;
72569;SDS011;60594;50.204;8.844;2023-12-20T09:33:31;5.15;;;2.80;;
72569;SDS011;60594;50.204;8.844;2023-12-20T09:35:58;5.40;;;2.10;;
72569;SDS011;60594;50.204;8.844;2023-12-20T09:38:24;4.22;;;1.80;;
72569;SDS011;60594;50.204;8.844;2023-12-20T09:40:51;7.15;;;2.28;;
72569;SDS011;60594;50.204;8.844;2023-12-20T09:43:18;5.90;;;2.47;;
72569;SDS011;60594;50.204;8.844;2023-12-20T09:45:46;7.25;;;1.80;;
72569;SDS011;60594;50.204;8.844;2023-12-20T09:48:13;5.18;;;1.88;;
72569;SDS011;60594;50.204;8.844;2023-12-20T09:50:44;7.45;;;2.03;;
72569;SDS011;60594;50.204;8.844;2023-12-20T09:53:11;4.60;;;1.73;;
72569;SDS011;60594;50.204;8.844;2023-12-20T09:55:42;7.82;;;1.98;;
72569;SDS011;60594;50.204;8.844;2023-12-20T09:58:08;11.57;;;3.15;;
72569;SDS011;60594;50.204;8.844;2023-12-20T10:00:35;7.72;;;1.70;;
72569;SDS011;60594;50.204;8.844;2023-12-20T10:03:01;6.95;;;2.33;;
72569;SDS011;60594;50.204;8.844;2023-12-20T10:05:32;4.97;;;2.20;;
72569;SDS011;60594;50.204;8.844;2023-12-20T10:07:59;4.70;;;1.92;;
72569;SDS011;60594;50.204;8.844;2023-12-20T10:10:26;9.07;;;2.20;;
72569;SDS011;60594;50.204;8.844;2023-12-20T10:13:03;4.68;;;2.08;;
72569;SDS011;60594;50.204;8.844;2023-12-20T10:15:32;5.30;;;1.90;;
72569;SDS011;60594;50.204;8.844;2023-12-20T10:17:59;5.43;;;1.80;;
72569;SDS011;60594;50.204;8.844;2023-12-20T10:20:28;4.55;;;2.08;;
72569;SDS011;60594;50.204;8.844;2023-12-20T10:22:58;6.65;;;2.17;;
72569;SDS011;60594;50.204;8.844;2023-12-20T10:25:25;8.45;;;2.20;;
72569;SDS011;60594;50.204;8.844;2023-12-20T10:28:08;6.07;;;1.92;;
72569;SDS011;60594;50.204;8.844;2023-12-20T10:30:45;7.35;;;3.50;;
72569;SDS011;60594;50.204;8.844;2023-12-20T10:33:11;5.90;;;2.28;;
72569;SDS011;60594;50.204;8.844;2023-12-20T10:35:38;7.22;;;2.17;;
72569;SDS011;60594;50.204;8.844;2023-12-20T10:38:05;4.10;;;2.15;;
72569;SDS011;60594;50.204;8.844;2023-12-20T10:40:36;5.60;;;1.83;;
72569;SDS011;60594;50.204;8.844;2023-12-20T10:43:05;6.53;;;2.30;;
72569;SDS011;60594;50.204;8.844;2023-12-20T10:45:32;6.93;;;2.40;;
72569;SDS011;60594;50.204;8.844;2023-12-20T10:47:58;5.72;;;2.60;;
72569;SDS011;60594;50.204;8.844;2023-12-20T10:50:26;10.50;;;2.67;;
72569;SDS011;60594;50.204;8.844;2023-12-20T10:52:54;5.70;;;2.08;;
72569;SDS011;60594;50.204;8.844;2023-12-20T10:55:22;7.85;;;2.80;;
72569;SDS011;60594;50.204;8.844;2023-12-20T10:57:49;8.13;;;2.20;;
72569;SDS011;60594;50.204;8.844;2023-12-20T11:00:39;5.32;;;1.88;;
72569;SDS011;60594;50.204;8.844;2023-12-20T11:03:09;7.63;;;1.85;;
72569;SDS011;60594;50.204;8.844;2023-12-20T11:05:43;6.72;;;2.10;;
72569;SDS011;60594;50.204;8.844;2023-12-20T11:11:07;8.27;;;2.30;;
72569;SDS011;60594;50.204;8.844;2023-12-20T11:14:11;5.25;;;1.95;;
72569;SDS011;60594;50.204;8.844;2023-12-20T11:16:50;6.30;;;2.63;;
72569;SDS011;60594;50.204;8.844;2023-12-20T11:19:17;5.43;;;1.85;;
72569;SDS011;60594;50.204;8.844;2023-12-20T11:21:45;7.20;;;2.38;;
72569;SDS011;60594;50.204;8.844;2023-12-20T11:24:12;5.43;;;1.77;;
72569;SDS011;60594;50.204;8.844;2023-12-20T11:26:38;6.32;;;1.90;;
72569;SDS011;60594;50.204;8.844;2023-12-20T11:29:31;4.45;;;1.95;;
72569;SDS011;60594;50.204;8.844;2023-12-20T11:32:03;6.70;;;1.80;;
72569;SDS011;60594;50.204;8.844;2023-12-20T11:34:50;6.22;;;2.00;;
72569;SDS011;60594;50.204;8.844;2023-12-20T11:37:20;7.70;;;1.88;;
72569;SDS011;60594;50.204;8.844;2023-12-20T11:39:56;8.15;;;1.92;;
72569;SDS011;60594;50.204;8.844;2023-12-20T11:42:28;7.25;;;2.25;;
72569;SDS011;60594;50.204;8.844;2023-12-20T11:44:59;7.00;;;1.92;;
72569;SDS011;60594;50.204;8.844;2023-12-20T11:47:25;8.02;;;2.63;;
72569;SDS011;60594;50.204;8.844;2023-12-20T11:49:52;4.97;;;1.70;;
72569;SDS011;60594;50.204;8.844;2023-12-20T11:52:19;4.43;;;1.42;;
72569;SDS011;60594;50.204;8.844;2023-12-20T11:54:46;3.22;;;1.38;;
72569;SDS011;60594;50.204;8.844;2023-12-20T11:57:14;4.28;;;1.52;;
72569;SDS011;60594;50.204;8.844;2023-12-20T11:59:40;5.00;;;1.48;;
72569;SDS011;60594;50.204;8.844;2023-12-20T12:02:07;4.78;;;1.60;;
72569;SDS011;60594;50.204;8.844;2023-12-20T12:04:34;4.88;;;1.75;;
72569;SDS011;60594;50.204;8.844;2023-12-20T12:07:00;6.82;;;2.03;;
72569;SDS011;60594;50.204;8.844;2023-12-20T12:09:27;4.82;;;1.52;;
72569;SDS011;60594;50.204;8.844;2023-12-20T12:11:53;6.57;;;1.90;;
72569;SDS011;60594;50.204;8.844;2023-12-20T12:14:20;5.13;;;1.77;;
72569;SDS011;60594;50.204;8.844;2023-12-20T12:16:46;4.53;;;1.83;;
72569;SDS011;60594;50.204;8.844;2023-12-20T12:19:20;5.35;;;2.03;;
72569;SDS011;60594;50.204;8.844;2023-12-20T12:21:47;4.57;;;1.70;;
72569;SDS011;60594;50.204;8.844;2023-12-20T12:24:13;9.20;;;1.75;;
72569;SDS011;60594;50.204;8.844;2023-12-20T12:26:40;3.30;;;1.40;;
72569;SDS011;60594;50.204;8.844;2023-12-20T12:29:07;8.48;;;1.80;;
72569;SDS011;60594;50.204;8.844;2023-12-20T12:31:34;6.93;;;1.42;;
72569;SDS011;60594;50.204;8.844;2023-12-20T12:34:01;3.67;;;1.52;;
72569;SDS011;60594;50.204;8.844;2023-12-20T12:36:28;6.13;;;1.50;;
72569;SDS011;60594;50.204;8.844;2023-12-20T12:38:56;4.00;;;1.40;;
72569;SDS011;60594;50.204;8.844;2023-12-20T12:41:23;3.17;;;1.58;;
72569;SDS011;60594;50.204;8.844;2023-12-20T12:43:50;6.22;;;1.50;;
72569;SDS011;60594;50.204;8.844;2023-12-20T12:46:16;7.90;;;1.70;;
72569;SDS011;60594;50.204;8.844;2023-12-20T12:48:43;6.47;;;1.23;;
72569;SDS011;60594;50.204;8.844;2023-12-20T12:51:10;4.60;;;1.35;;
72569;SDS011;60594;50.204;8.844;2023-12-20T12:53:39;6.22;;;1.60;;
72569;SDS011;60594;50.204;8.844;2023-12-20T12:56:06;3.70;;;1.45;;
72569;SDS011;60594;50.204;8.844;2023-12-20T12:58:33;4.90;;;1.27;;
72569;SDS011;60594;50.204;8.844;2023-12-20T13:01:00;3.45;;;1.17;;
72569;SDS011;60594;50.204;8.844;2023-12-20T13:03:26;5.88;;;1.77;;
72569;SDS011;60594;50.204;8.844;2023-12-20T13:05:53;4.43;;;1.40;;
72569;SDS011;60594;50.204;8.844;2023-12-20T13:08:19;3.28;;;1.45;;
72569;SDS011;60594;50.204;8.844;2023-12-20T13:10:46;5.60;;;1.45;;
72569;SDS011;60594;50.204;8.844;2023-12-20T13:13:12;4.38;;;1.38;;
72569;SDS011;60594;50.204;8.844;2023-12-20T13:15:39;6.70;;;1.25;;
72569;SDS011;60594;50.204;8.844;2023-12-20T13:18:06;4.05;;;1.65;;
72569;SDS011;60594;50.204;8.844;2023-12-20T13:20:33;7.43;;;1.30;;
72569;SDS011;60594;50.204;8.844;2023-12-20T13:22:59;5.22;;;1.25;;
72569;SDS011;60594;50.204;8.844;2023-12-20T13:25:26;3.22;;;1.38;;
72569;SDS011;60594;50.204;8.844;2023-12-20T13:27:53;7.82;;;1.70;;
72569;SDS011;60594;50.204;8.844;2023-12-20T13:30:19;4.35;;;1.50;;
72569;SDS011;60594;50.204;8.844;2023-12-20T13:32:45;3.10;;;1.20;;
72569;SDS011;60594;50.204;8.844;2023-12-20T13:35:12;5.03;;;1.35;;
72569;SDS011;60594;50.204;8.844;2023-12-20T13:37:38;4.03;;;1.08;;
72569;SDS011;60594;50.204;8.844;2023-12-20T13:40:05;4.63;;;1.75;;
72569;SDS011;60594;50.204;8.844;2023-12-20T13:42:32;5.35;;;1.52;;
72569;SDS011;60594;50.204;8.844;2023-12-20T13:44:59;7.53;;;1.70;;
72569;SDS011;60594;50.204;8.844;2023-12-20T13:47:26;5.18;;;1.88;;
72569;SDS011;60594;50.204;8.844;2023-12-20T13:49:52;4.80;;;1.40;;
72569;SDS011;60594;50.204;8.844;2023-12-20T13:52:19;4.00;;;1.15;;
72569;SDS011;60594;50.204;8.844;2023-12-20T13:54:45;4.63;;;1.73;;
72569;SDS011;60594;50.204;8.844;2023-12-20T13:57:11;5.32;;;1.70;;
72569;SDS011;60594;50.204;8.844;2023-12-20T13:59:38;5.72;;;2.20;;
72569;SDS011;60594;50.204;8.844;2023-12-20T14:02:05;6.40;;;1.35;;
72569;SDS011;60594;50.204;8.844;2023-12-20T14:04:31;8.52;;;2.25;;
72569;SDS011;60594;50.204;8.844;2023-12-20T14:06:57;4.47;;;1.50;;
72569;SDS011;60594;50.204;8.844;2023-12-20T14:09:24;5.65;;;1.58;;
72569;SDS011;60594;50.204;8.844;2023-12-20T14:11:51;4.05;;;1.40;;
72569;SDS011;60594;50.204;8.844;2023-12-20T14:14:18;5.47;;;1.70;;
72569;SDS011;60594;50.204;8.844;2023-12-20T14:16:44;3.25;;;1.20;;
72569;SDS011;60594;50.204;8.844;2023-12-20T14:19:11;5.28;;;1.65;;
72569;SDS011;60594;50.204;8.844;2023-12-20T14:21:37;7.07;;;1.73;;
72569;SDS011;60594;50.204;8.844;2023-12-20T14:24:04;5.60;;;1.90;;
72569;SDS011;60594;50.204;8.844;2023-12-20T14:26:31;5.18;;;1.90;;
72569;SDS011;60594;50.204;8.844;2023-12-20T14:28:58;5.47;;;1.70;;
72569;SDS011;60594;50.204;8.844;2023-12-20T14:31:24;6.63;;;2.08;;
72569;SDS011;60594;50.204;8.844;2023-12-20T14:33:51;5.93;;;1.75;;
72569;SDS011;60594;50.204;8.844;2023-12-20T14:36:19;7.45;;;2.03;;
72569;SDS011;60594;50.204;8.844;2023-12-20T14:38:47;6.68;;;1.73;;
72569;SDS011;60594;50.204;8.844;2023-12-20T14:41:14;5.55;;;2.03;;
72569;SDS011;60594;50.204;8.844;2023-12-20T14:43:41;8.15;;;1.95;;
72569;SDS011;60594;50.204;8.844;2023-12-20T14:46:07;3.50;;;2.00;;
72569;SDS011;60594;50.204;8.844;2023-12-20T14:48:34;4.43;;;1.58;;
72569;SDS011;60594;50.204;8.844;2023-12-20T14:51:00;6.53;;;1.88;;